createdAt,value
2019-04-25T00:01:46.612Z,100438.95
2019-04-25T00:06:50.145Z,100454.30
2019-04-25T00:11:52.717Z,100446.63
2019-04-25T00:16:54.829Z,100451.67
2019-04-25T00:22:02.741Z,100462.09
2019-04-25T00:27:07.794Z,100465.39
2019-04-25T00:32:11.615Z,100472.64
2019-04-25T00:37:14.021Z,100469.64
2019-04-25T00:42:16.122Z,100470.33
2019-04-25T00:47:18.059Z,100470.35
2019-04-25T00:52:21.093Z,100466.81
2019-04-25T00:57:25.174Z,100472.52
2019-04-25T01:02:34.396Z,100471.53
2019-04-25T01:07:36.300Z,100470.53
2019-04-25T01:12:38.189Z,100464.84
2019-04-25T01:17:41.323Z,100478.20
2019-04-25T01:22:44.098Z,100491.22
2019-04-25T01:27:46.605Z,100506.09
2019-04-25T01:32:48.904Z,100512.58
2019-04-25T01:37:59.383Z,100518.24
2019-04-25T01:43:09.559Z,100519.51
2019-04-25T01:48:13.629Z,100519.77
2019-04-25T01:53:15.978Z,100521.85
2019-04-25T01:58:17.950Z,100515.47
2019-04-25T02:03:21.394Z,100496.14
2019-04-25T02:08:23.913Z,100503.28
2019-04-25T02:13:26.301Z,100488.61
2019-04-25T02:18:28.266Z,100482.53
2019-04-25T02:23:32.007Z,100461.73
2019-04-25T02:28:33.971Z,100454.22
2019-04-25T02:33:35.782Z,100461.55
2019-04-25T02:38:39.264Z,100466.70
2019-04-25T02:43:41.292Z,100465.56
2019-04-25T02:49:03.033Z,100473.28
2019-04-25T02:54:08.238Z,100472.77
2019-04-25T02:59:10.375Z,100458.89
2019-04-25T03:04:14.402Z,100463.22
2019-04-25T03:09:16.325Z,100453.41
2019-04-25T03:14:18.392Z,100435.00
2019-04-25T03:19:44.018Z,100444.69
2019-04-25T03:24:46.099Z,100447.73
2019-04-25T03:29:48.323Z,100444.53
2019-04-25T03:34:50.586Z,100436.21
2019-04-25T03:39:53.525Z,100427.05
2019-04-25T03:44:55.544Z,100425.87
2019-04-25T03:49:57.497Z,100433.03
2019-04-25T03:54:59.456Z,100433.94
2019-04-25T04:00:03.598Z,100443.25
2019-04-25T04:05:09.617Z,100458.91
2019-04-25T04:10:12.600Z,100460.55
2019-04-25T04:15:16.476Z,100457.55
2019-04-25T04:20:33.824Z,100451.09
2019-04-25T04:25:37.643Z,100460.11
2019-04-25T04:30:39.490Z,100463.44
2019-04-25T04:35:41.711Z,100450.62
2019-04-25T04:40:44.205Z,100449.47
2019-04-25T04:45:46.624Z,100450.95
2019-04-25T04:50:48.429Z,100456.97
2019-04-25T04:55:50.486Z,100461.85
2019-04-25T05:00:53.691Z,100457.66
2019-04-25T05:06:06.483Z,100463.34
2019-04-25T05:11:12.289Z,100475.17
2019-04-25T05:16:17.833Z,100465.81
2019-04-25T05:21:20.382Z,100470.52
2019-04-25T05:26:24.880Z,100465.42
2019-04-25T05:31:37.179Z,100458.08
2019-04-25T05:36:39.291Z,100477.67
2019-04-25T05:41:57.224Z,100476.82
2019-04-25T05:46:59.259Z,100480.20
2019-04-25T05:52:01.062Z,100480.86
2019-04-25T05:57:03.693Z,100492.25
2019-04-25T06:02:05.836Z,100488.39
2019-04-25T06:07:08.176Z,100490.72
2019-04-25T06:12:26.323Z,100499.13
2019-04-25T06:17:48.216Z,100501.84
2019-04-25T06:23:04.080Z,100507.33
2019-04-25T06:28:09.258Z,100507.22
2019-04-25T06:33:11.278Z,100502.91
2019-04-25T06:38:16.845Z,100515.39
2019-04-25T06:43:18.703Z,100500.86
2019-04-25T06:48:45.586Z,100511.44
2019-04-25T06:53:47.974Z,100519.34
2019-04-25T06:58:53.250Z,100511.33
2019-04-25T07:03:56.621Z,100521.53
2019-04-25T07:08:58.700Z,100529.75
2019-04-25T07:14:04.159Z,100539.25
2019-04-25T07:19:06.452Z,100556.50
2019-04-25T07:24:09.604Z,100555.73
2019-04-25T07:29:24.783Z,100566.11
2019-04-25T07:34:28.878Z,100567.47
2019-04-25T07:39:31.920Z,100587.04
2019-04-25T07:44:48.871Z,100577.84
2019-04-25T07:49:39.371Z,100580.64
2019-04-25T07:54:44.077Z,100587.92
2019-04-25T07:59:47.454Z,100605.89
2019-04-25T08:04:54.162Z,100627.83
2019-04-25T08:09:56.643Z,100624.33
2019-04-25T08:15:10.207Z,100628.23
2019-04-25T08:20:15.209Z,100630.52
2019-04-25T08:25:18.001Z,100647.36
2019-04-25T08:30:20.225Z,100649.00
2019-04-25T08:35:23.986Z,100644.44
2019-04-25T08:40:28.902Z,100643.28
2019-04-25T08:45:33.567Z,100634.39
2019-04-25T08:51:01.263Z,100628.15
2019-04-25T08:56:13.363Z,100625.23
2019-04-25T09:01:25.557Z,100621.05
2019-04-25T09:06:27.542Z,100626.95
2019-04-25T09:11:32.235Z,100616.33
2019-04-25T09:16:35.418Z,100625.52
2019-04-25T09:21:37.849Z,100625.97
2019-04-25T09:26:40.104Z,100629.78
2019-04-25T09:31:46.023Z,100620.90
2019-04-25T09:36:48.152Z,100621.47
2019-04-25T09:41:50.306Z,100628.44
2019-04-25T09:47:01.295Z,100616.98
2019-04-25T09:52:15.629Z,100602.70
2019-04-25T09:57:46.270Z,100596.61
2019-04-25T10:02:55.456Z,100593.69
2019-04-25T10:07:57.593Z,100582.63
2019-04-25T10:12:59.627Z,100593.00
2019-04-25T10:18:01.914Z,100605.72
2019-04-25T10:23:05.036Z,100613.36
2019-04-25T10:28:07.755Z,100588.31
2019-04-25T10:33:09.827Z,100567.39
2019-04-25T10:38:15.294Z,100565.30
2019-04-25T10:43:17.295Z,100553.67
2019-04-25T10:48:19.389Z,100549.91
2019-04-25T10:53:25.043Z,100565.25
2019-04-25T10:58:27.274Z,100580.86
2019-04-25T11:03:56.923Z,100591.44
2019-04-25T11:08:58.831Z,100565.94
2019-04-25T11:14:00.900Z,100562.56
2019-04-25T11:19:03.062Z,100563.17
2019-04-25T11:24:05.244Z,100571.05
2019-04-25T11:29:08.357Z,100587.22
2019-04-25T11:34:11.520Z,100576.73
2019-04-25T11:39:33.460Z,100572.86
2019-04-25T11:44:35.268Z,100575.56
2019-04-25T11:49:37.262Z,100572.51
2019-04-25T11:54:39.425Z,100587.13
2019-04-25T11:59:41.999Z,100581.64
2019-04-25T12:04:46.769Z,100579.98
2019-04-25T12:09:49.966Z,100565.81
2019-04-25T12:14:54.015Z,100556.48
2019-04-25T12:19:56.283Z,100548.52
2019-04-25T12:25:00.751Z,100543.64
2019-04-25T12:30:05.924Z,100558.61
2019-04-25T12:35:08.098Z,100546.79
2019-04-25T12:40:10.701Z,100546.34
2019-04-25T12:45:20.409Z,100543.42
2019-04-25T12:50:23.091Z,100563.23
2019-04-25T12:55:26.591Z,100549.10
2019-04-25T13:00:31.347Z,100548.40
2019-04-25T13:05:36.764Z,100545.23
2019-04-25T13:10:38.680Z,100537.00
2019-04-25T13:15:40.641Z,100532.85
2019-04-25T13:20:42.746Z,100539.78
2019-04-25T13:25:44.898Z,100540.04
2019-04-25T13:31:12.468Z,100537.92
2019-04-25T13:36:13.943Z,100549.71
2019-04-25T13:41:16.023Z,100574.00
2019-04-25T13:46:20.611Z,100612.13
2019-04-25T13:51:23.022Z,100646.17
2019-04-25T13:56:27.425Z,100657.23
2019-04-25T14:01:31.837Z,100658.20
2019-04-25T14:06:41.405Z,100655.95
2019-04-25T14:11:44.811Z,100674.63
2019-04-25T14:17:18.769Z,100680.75
2019-04-25T14:22:25.223Z,100695.95
2019-04-25T14:27:30.225Z,100701.16
2019-04-25T14:32:33.932Z,100706.67
2019-04-25T14:37:39.604Z,100706.67
2019-04-25T14:42:39.967Z,100715.37
2019-04-25T14:47:42.122Z,100699.19
2019-04-25T14:52:43.928Z,100699.59
2019-04-25T14:57:45.961Z,100685.31
2019-04-25T15:02:48.076Z,100680.40
2019-04-25T15:07:50.268Z,100673.24
2019-04-25T15:12:52.513Z,100702.63
2019-04-25T15:17:57.034Z,100699.94
2019-04-25T15:22:59.291Z,100704.59
2019-04-25T15:28:03.248Z,100715.48
2019-04-25T15:33:06.818Z,100724.31
2019-04-25T15:38:13.114Z,100729.25
2019-04-25T15:43:33.674Z,100739.23
2019-04-25T15:48:36.111Z,100727.81
2019-04-25T15:53:38.141Z,100716.56
2019-04-25T15:58:41.696Z,100706.56
2019-04-25T16:03:44.637Z,100710.62
2019-04-25T16:08:47.360Z,100715.87
2019-04-25T16:13:49.262Z,100702.48
2019-04-25T16:18:51.357Z,100716.30
2019-04-25T16:23:54.966Z,100716.79
2019-04-25T16:28:56.890Z,100724.16
2019-04-25T16:33:58.797Z,100734.46
2019-04-25T16:39:03.561Z,100721.26
2019-04-25T16:44:13.296Z,100717.35
2019-04-25T16:49:15.254Z,100729.65
2019-04-25T16:54:17.327Z,100743.52
2019-04-25T16:59:20.538Z,100738.23
2019-04-25T17:04:24.325Z,100740.62
2019-04-25T17:09:26.246Z,100725.82
2019-04-25T17:14:46.590Z,100730.23
2019-04-25T17:20:17.073Z,100722.97
2019-04-25T17:25:21.140Z,100726.03
2019-04-25T17:30:23.286Z,100719.59
2019-04-25T17:35:53.823Z,100739.88
2019-04-25T17:40:56.039Z,100764.22
2019-04-25T17:45:58.776Z,100777.42
2019-04-25T17:51:03.041Z,100798.54
2019-04-25T17:56:05.248Z,100806.13
2019-04-25T18:01:09.228Z,100820.13
2019-04-25T18:06:11.328Z,100818.06
2019-04-25T18:11:13.264Z,100840.13
2019-04-25T18:16:25.099Z,100839.89
2019-04-25T18:21:27.108Z,100849.91
2019-04-25T18:26:48.593Z,100862.59
2019-04-25T18:31:50.639Z,100858.08
2019-04-25T18:37:12.322Z,100856.00
2019-04-25T18:42:31.103Z,100860.91
2019-04-25T18:47:33.217Z,100874.10
2019-04-25T18:52:53.738Z,100887.66
2019-04-25T18:58:18.111Z,100918.76
2019-04-25T19:03:43.636Z,100905.78
2019-04-25T19:08:47.088Z,100924.79
2019-04-25T19:13:51.694Z,100918.06
2019-04-25T19:19:01.560Z,100923.86
2019-04-25T19:24:05.554Z,100914.24
2019-04-25T19:29:09.220Z,100925.13
2019-04-25T19:34:12.450Z,100909.34
2019-04-25T19:39:16.377Z,100916.74
2019-04-25T19:44:21.893Z,100919.73
2019-04-25T19:49:23.827Z,100928.13
2019-04-25T19:54:25.813Z,100927.63
2019-04-25T19:59:27.713Z,100914.69
2019-04-25T20:04:53.742Z,100919.59
2019-04-25T20:10:28.004Z,100918.12
2019-04-25T20:15:30.246Z,100908.73
2019-04-25T20:20:32.128Z,100883.09
2019-04-25T20:25:34.154Z,100906.80
2019-04-25T20:30:36.307Z,100913.45
2019-04-25T20:35:38.281Z,100905.61
2019-04-25T20:40:40.237Z,100909.64
2019-04-25T20:45:42.294Z,100924.19
2019-04-25T20:50:44.224Z,100918.67
2019-04-25T20:55:46.490Z,100920.19
2019-04-25T21:00:52.311Z,100925.54
2019-04-25T21:05:57.229Z,100924.52
2019-04-25T21:11:00.640Z,100936.92
2019-04-25T21:16:21.198Z,100936.89
2019-04-25T21:21:22.919Z,100948.28
2019-04-25T21:26:25.326Z,100960.03
2019-04-25T21:31:27.358Z,100959.63
2019-04-25T21:36:29.388Z,100974.09
2019-04-25T21:42:00.096Z,100963.63
2019-04-25T21:47:06.855Z,100980.38
2019-04-25T21:52:09.254Z,100984.75
2019-04-25T21:57:15.186Z,100989.75
2019-04-25T22:02:18.576Z,100986.36
2019-04-25T22:07:23.723Z,101006.30
2019-04-25T22:12:26.035Z,101002.44
2019-04-25T22:17:30.882Z,100986.28
2019-04-25T22:22:33.463Z,100987.22
2019-04-25T22:27:36.939Z,100994.19
2019-04-25T22:32:54.662Z,100997.67
2019-04-25T22:37:57.613Z,100987.35
2019-04-25T22:43:00.449Z,100982.44
2019-04-25T22:48:02.844Z,100971.37
2019-04-25T22:53:05.012Z,100976.91
2019-04-25T22:58:08.389Z,100973.22
2019-04-25T23:03:27.509Z,100985.26
2019-04-25T23:08:29.518Z,100990.13
2019-04-25T23:13:31.748Z,100980.76
2019-04-25T23:18:36.153Z,100992.87
2019-04-25T23:23:38.017Z,101005.16
2019-04-25T23:28:41.379Z,101028.46
2019-04-25T23:33:43.532Z,101052.67
2019-04-25T23:38:46.190Z,101050.63
2019-04-25T23:43:48.698Z,101033.16
2019-04-25T23:48:50.695Z,101022.42
2019-04-25T23:53:52.603Z,101025.67
2019-04-25T23:58:54.519Z,101029.68
